Time;durP1;ratioP1;P1;durP2;ratioP2;P2;SDS_P1;SDS_P2;PMS_P1;PMS_P2;Temp;Humidity;BMP_temperature;BMP_pressure;BME280_temperature;BME280_humidity;BME280_pressure;Samples;Min_cycle;Max_cycle;Signal;HPM_P1;HPM_P2
2021/07/15 00:00:58;;;;;;;5.00;2.65;;;;;;;22.14;100.00;95953.59;5017714;28;20465;-51
2021/07/15 00:03:29;;;;;;;5.22;2.83;;;;;;;21.99;100.00;95953.22;5024767;28;20087;-53
2021/07/15 00:05:59;;;;;;;3.08;2.30;;;;;;;21.87;100.00;95960.38;5019285;28;20429;-53
2021/07/15 00:08:28;;;;;;;3.70;2.20;;;;;;;21.47;100.00;95963.56;5017777;28;20077;-53
2021/07/15 00:10:59;;;;;;;2.55;2.30;;;;;;;21.21;100.00;95959.34;5016820;28;20535;-50
2021/07/15 00:13:28;;;;;;;3.50;2.42;;;;;;;21.42;100.00;95966.13;5028194;28;20297;-53
2021/07/15 00:15:59;;;;;;;2.90;2.60;;;;;;;21.49;100.00;95961.50;5025556;28;20076;-53
2021/07/15 00:18:29;;;;;;;;;;;;;;;22.14;100.00;95961.63;5026478;28;20527;-51
2021/07/15 00:20:59;;;;;;;8.23;2.53;;;;;;;21.75;100.00;95961.16;5026027;28;19949;-50
2021/07/15 00:23:28;;;;;;;3.35;2.25;;;;;;;21.97;100.00;95958.78;5024695;28;20076;-53
2021/07/15 00:25:57;;;;;;;2.30;2.10;;;;;;;21.39;100.00;95956.66;5024667;28;20527;-54
2021/07/15 00:28:25;;;;;;;6.53;2.33;;;;;;;22.01;100.00;95956.47;5026245;28;20259;-53
2021/07/15 00:30:53;;;;;;;3.08;2.08;;;;;;;21.52;100.00;95961.06;5021497;28;20496;-51
2021/07/15 00:33:22;;;;;;;2.58;2.13;;;;;;;21.77;100.00;95953.69;5022370;28;20061;-49
2021/07/15 00:35:51;;;;;;;1.95;1.80;;;;;;;20.95;100.00;95950.50;5025355;28;20159;-50
2021/07/15 00:38:20;;;;;;;2.73;1.70;;;;;;;21.27;100.00;95955.75;5027646;28;20451;-54
2021/07/15 00:40:48;;;;;;;1.95;1.70;;;;;;;21.09;100.00;95952.03;5022343;28;20500;-50
2021/07/15 00:43:17;;;;;;;2.38;1.90;;;;;;;21.30;100.00;95948.09;5021410;28;20037;-53
2021/07/15 00:45:45;;;;;;;1.75;1.65;;;;;;;21.91;100.00;95948.94;5027228;28;20072;-46
2021/07/15 00:48:14;;;;;;;2.88;1.90;;;;;;;21.73;100.00;95954.38;5024035;28;20546;-56
2021/07/15 00:50:42;;;;;;;2.38;1.90;;;;;;;21.32;100.00;95956.72;5023573;28;20478;-53
2021/07/15 00:53:14;;;;;;;3.15;2.08;;;;;;;21.67;100.00;95957.97;5015964;28;20112;-48
2021/07/15 00:55:43;;;;;;;1.83;1.73;;;;;;;21.94;100.00;95959.25;5029044;28;20553;-49
2021/07/15 00:58:14;;;;;;;2.08;1.67;;;;;;;22.38;100.00;95954.47;5021567;28;20077;-50
2021/07/15 01:00:44;;;;;;;2.30;1.90;;;;;;;22.23;100.00;95951.44;5022221;28;20370;-50
2021/07/15 01:03:14;;;;;;;2.65;1.70;;;;;;;22.19;100.00;95953.72;5026267;28;20459;-49
2021/07/15 01:05:44;;;;;;;1.92;1.70;;;;;;;22.35;100.00;95946.06;5024408;28;20069;-51
2021/07/15 01:08:16;;;;;;;2.03;1.75;;;;;;;22.23;100.00;95960.31;5024259;28;20516;-55
2021/07/15 01:10:47;;;;;;;2.75;1.70;;;;;;;21.95;100.00;95960.06;5024848;28;20073;-51
2021/07/15 01:13:36;;;;;;;2.58;1.60;;;;;;;22.15;100.00;95955.25;5030073;28;20084;-55
2021/07/15 01:16:12;;;;;;;2.55;1.60;;;;;;;22.22;100.00;95947.09;5023699;28;20061;-46
2021/07/15 01:18:49;;;;;;;2.65;1.60;;;;;;;22.19;100.00;95943.00;5022978;28;20069;-53
2021/07/15 01:21:32;;;;;;;3.13;1.70;;;;;;;22.26;100.00;95937.50;5018513;28;20081;-51
2021/07/15 01:24:35;;;;;;;2.78;1.55;;;;;;;21.97;100.00;95952.59;5025153;28;20069;-47
2021/07/15 01:27:43;;;;;;;2.13;1.42;;;;;;;22.10;100.00;95947.03;5026079;28;20076;-52
2021/07/15 01:30:13;;;;;;;1.83;1.60;;;;;;;22.31;100.00;95947.59;5007084;28;20093;-48
2021/07/15 01:32:53;;;;;;;2.25;1.55;;;;;;;22.26;100.00;95943.72;5023840;28;20069;-54
2021/07/15 01:35:26;;;;;;;1.40;1.30;;;;;;;22.61;100.00;95940.25;5018620;28;20103;-51
2021/07/15 01:37:57;;;;;;;2.00;1.50;;;;;;;22.13;100.00;95951.97;5019431;28;20089;-53
2021/07/15 01:40:30;;;;;;;1.48;1.38;;;;;;;21.90;100.00;95950.00;5024103;28;20512;-48
2021/07/15 01:43:04;;;;;;;1.50;1.40;;;;;;;22.21;100.00;95940.91;5021131;28;20524;-51
2021/07/15 01:45:34;;;;;;;1.40;1.30;;;;;;;21.60;100.00;95944.63;5020504;28;20069;-51
2021/07/15 01:48:02;;;;;;;1.35;1.25;;;;;;;21.75;100.00;95946.94;5026237;28;20069;-51
2021/07/15 01:50:31;;;;;;;2.22;1.30;;;;;;;21.93;100.00;95946.88;5022586;28;20065;-51
2021/07/15 01:53:00;;;;;;;1.75;1.23;;;;;;;21.36;100.00;95946.38;5019295;28;20148;-51
2021/07/15 01:55:29;;;;;;;2.25;1.10;;;;;;;21.68;100.00;95946.19;5019002;28;21343;-49
2021/07/15 01:57:58;;;;;;;1.90;1.10;;;;;;;22.16;100.00;95948.84;5026218;28;20069;-51
2021/07/15 02:00:27;;;;;;;2.38;1.00;;;;;;;21.98;100.00;95952.34;5024870;28;20519;-53
2021/07/15 02:02:57;;;;;;;1.02;1.02;;;;;;;22.32;100.00;95941.16;5021571;28;20516;-46
2021/07/15 02:05:26;;;;;;;2.25;1.30;;;;;;;22.75;100.00;95932.78;5021669;28;20128;-54
2021/07/15 02:07:55;;;;;;;2.20;1.10;;;;;;;22.89;100.00;95934.19;5026253;28;20077;-49
2021/07/15 02:10:26;;;;;;;3.17;1.00;;;;;;;22.62;100.00;95944.56;5021514;28;20487;-52
2021/07/15 02:12:54;;;;;;;;;;;;;;;22.05;100.00;95947.72;5018340;28;20581;-51
2021/07/15 02:15:24;;;;;;;1.00;1.00;;;;;;;22.54;100.00;95938.72;5020683;28;19929;-53
2021/07/15 02:17:53;;;;;;;1.48;1.20;;;;;;;22.60;100.00;95937.78;5023296;28;20072;-49
2021/07/15 02:20:24;;;;;;;2.38;1.20;;;;;;;22.91;100.00;95936.63;5018706;28;20065;-45
2021/07/15 02:22:54;;;;;;;1.20;1.10;;;;;;;23.14;100.00;95939.31;5020352;28;20073;-44
2021/07/15 02:25:23;;;;;;;1.30;1.20;;;;;;;22.75;100.00;95946.22;5020450;28;20411;-46
2021/07/15 02:27:53;;;;;;;1.20;1.10;;;;;;;23.27;100.00;95940.94;5024397;28;20069;-47
2021/07/15 02:30:21;;;;;;;1.45;1.33;;;;;;;23.65;100.00;95940.34;5022746;28;20095;-47
2021/07/15 02:32:53;;;;;;;1.33;1.20;;;;;;;23.85;100.00;95937.28;5022218;28;20073;-48
2021/07/15 02:35:23;;;;;;;2.80;1.20;;;;;;;24.00;100.00;95938.59;5022790;28;20072;-44
2021/07/15 02:37:52;;;;;;;;;;;;;;;24.01;100.00;95935.66;5022958;28;20543;-47
2021/07/15 02:40:20;;;;;;;2.25;1.10;;;;;;;23.39;100.00;95933.63;5019301;28;19957;-45
2021/07/15 02:42:49;;;;;;;1.60;1.20;;;;;;;23.66;100.00;95938.47;5017736;28;20092;-48
2021/07/15 02:45:18;;;;;;;1.20;1.10;;;;;;;23.42;100.00;95943.13;5027677;28;20077;-47
2021/07/15 02:47:56;;;;;;;1.77;1.30;;;;;;;22.86;100.00;95937.34;5023477;28;20050;-50
2021/07/15 02:50:26;;;;;;;1.17;1.00;;;;;;;23.46;100.00;95934.31;5022515;28;20465;-45
2021/07/15 02:52:55;;;;;;;;;;;;;;;23.32;100.00;95942.91;5020128;28;20077;-46
2021/07/15 02:55:24;;;;;;;1.30;1.20;;;;;;;23.66;100.00;95941.97;5023637;28;19964;-47
2021/07/15 02:57:58;;;;;;;1.30;1.10;;;;;;;22.47;100.00;95947.72;5021544;28;20061;-44
2021/07/15 03:00:27;;;;;;;3.25;1.10;;;;;;;22.95;100.00;95943.19;5018451;28;20076;-53
2021/07/15 03:03:02;;;;;;;1.10;1.00;;;;;;;22.73;100.00;95945.63;5021020;28;20076;-46
2021/07/15 03:05:35;;;;;;;1.13;1.10;;;;;;;23.45;100.00;95948.03;5024624;28;20111;-48
2021/07/15 03:08:07;;;;;;;3.78;1.10;;;;;;;23.39;100.00;95951.66;5022171;28;20084;-51
2021/07/15 03:10:36;;;;;;;1.80;1.02;;;;;;;23.24;100.00;95949.47;5024885;28;20683;-52
2021/07/15 03:13:09;;;;;;;1.17;1.08;;;;;;;23.16;100.00;95944.47;5026256;28;20068;-53
2021/07/15 03:15:39;;;;;;;1.75;0.90;;;;;;;22.88;100.00;95946.00;5022961;28;20455;-48
2021/07/15 03:18:09;;;;;;;1.10;1.00;;;;;;;22.59;100.00;95938.84;5020102;28;20538;-54
2021/07/15 03:20:40;;;;;;;1.30;1.10;;;;;;;21.61;100.00;95940.06;5021656;28;20148;-46
2021/07/15 03:23:12;;;;;;;1.48;1.10;;;;;;;22.02;100.00;95944.66;5023608;28;20073;-52
2021/07/15 03:25:46;;;;;;;0.98;0.98;;;;;;;21.89;100.00;95943.00;5023038;28;20096;-52
2021/07/15 03:28:15;;;;;;;1.73;1.10;;;;;;;22.09;100.00;95937.31;5018793;28;20086;-49
2021/07/15 03:30:44;;;;;;;1.92;1.10;;;;;;;21.54;100.00;95938.31;5024768;28;20068;-45
2021/07/15 03:33:13;;;;;;;2.15;1.10;;;;;;;22.08;100.00;95945.63;5022500;28;20072;-48
2021/07/15 03:35:43;;;;;;;1.10;1.00;;;;;;;22.35;100.00;95940.69;5017417;28;20076;-45
2021/07/15 03:38:13;;;;;;;3.42;1.20;;;;;;;22.37;100.00;95942.13;5016338;28;20086;-45
2021/07/15 03:40:41;;;;;;;3.05;1.00;;;;;;;22.45;100.00;95946.31;5026574;28;20077;-49
2021/07/15 03:43:11;;;;;;;1.90;1.20;;;;;;;22.77;100.00;95954.03;5021854;28;20087;-45
2021/07/15 03:45:40;;;;;;;1.33;1.10;;;;;;;23.07;100.00;95953.94;5021238;28;20064;-49
2021/07/15 03:48:09;;;;;;;1.67;1.17;;;;;;;22.80;100.00;95958.97;5028917;28;20064;-45
2021/07/15 03:50:38;;;;;;;2.70;1.10;;;;;;;22.91;100.00;95961.63;5025384;28;20057;-45
2021/07/15 03:53:08;;;;;;;1.50;0.98;;;;;;;22.89;100.00;95966.44;5020068;28;20531;-48
2021/07/15 03:55:38;;;;;;;2.22;1.08;;;;;;;22.60;100.00;95956.59;5027182;28;20080;-49
2021/07/15 03:58:09;;;;;;;1.27;1.17;;;;;;;23.27;100.00;95965.16;5026231;28;20065;-53
2021/07/15 04:00:41;;;;;;;2.97;1.88;;;;;;;23.44;100.00;95967.94;5023101;28;20456;-51
2021/07/15 04:03:12;;;;;;;1.88;1.60;;;;;;;23.93;98.76;95963.78;5022112;28;20073;-49
2021/07/15 04:05:41;;;;;;;1.40;1.30;;;;;;;24.04;97.63;95964.81;5026499;28;20053;-50
2021/07/15 04:08:11;;;;;;;1.50;1.40;;;;;;;24.35;92.39;95968.84;5023699;28;20518;-46
2021/07/15 04:10:40;;;;;;;2.28;1.00;;;;;;;24.09;92.95;95970.28;5022767;28;20083;-46
2021/07/15 04:13:10;;;;;;;1.10;1.00;;;;;;;24.34;93.31;95972.63;5024396;28;20069;-51
2021/07/15 04:15:57;;;;;;;1.20;1.10;;;;;;;24.41;88.50;95972.50;5028347;28;20073;-47
2021/07/15 04:18:29;;;;;;;1.58;1.08;;;;;;;24.14;93.63;95966.88;5021117;28;20073;-49
2021/07/15 04:20:58;;;;;;;2.75;1.38;;;;;;;23.91;98.04;95965.91;5018286;28;20069;-52
2021/07/15 04:23:28;;;;;;;1.63;1.00;;;;;;;24.57;91.73;95966.28;5026188;28;20448;-51
2021/07/15 04:25:56;;;;;;;1.65;1.00;;;;;;;24.50;85.01;95973.72;5027509;28;20482;-47
2021/07/15 04:28:26;;;;;;;1.10;1.00;;;;;;;24.47;91.99;95974.22;5020870;28;20589;-51
2021/07/15 04:30:57;;;;;;;1.17;1.00;;;;;;;24.66;87.52;95973.97;5026426;28;20069;-48
2021/07/15 04:33:27;;;;;;;1.08;1.00;;;;;;;25.05;81.70;95972.13;5028952;28;20065;-49
2021/07/15 04:35:56;;;;;;;1.27;1.00;;;;;;;25.32;78.09;95969.56;5025752;28;20068;-49
2021/07/15 04:38:25;;;;;;;1.02;0.90;;;;;;;25.58;74.85;95966.13;5018089;28;20128;-49
2021/07/15 04:40:56;;;;;;;0.95;0.93;;;;;;;25.93;70.84;95962.22;5030085;28;20077;-46
2021/07/15 04:43:24;;;;;;;1.35;1.00;;;;;;;25.46;76.35;95973.50;5023968;28;20448;-52
2021/07/15 04:45:54;;;;;;;0.75;0.75;;;;;;;24.48;89.94;95964.25;5024001;28;20065;-52
2021/07/15 04:48:23;;;;;;;1.55;0.98;;;;;;;25.38;75.97;95965.06;5019063;28;20081;-47
2021/07/15 04:50:51;;;;;;;1.02;0.90;;;;;;;24.94;78.51;95965.75;5028336;28;20061;-49
2021/07/15 04:53:23;;;;;;;2.13;1.00;;;;;;;25.59;74.49;95975.03;5024752;28;20145;-50
2021/07/15 04:55:54;;;;;;;0.80;0.80;;;;;;;26.51;65.37;95976.06;5020911;28;20045;-48
2021/07/15 04:58:24;;;;;;;2.67;1.40;;;;;;;26.84;62.57;95966.03;5025099;28;20072;-48
2021/07/15 05:00:52;;;;;;;1.30;1.20;;;;;;;28.03;56.22;95966.41;5024091;28;20507;-49
2021/07/15 05:03:30;;;;;;;1.90;1.80;;;;;;;30.10;48.93;95972.94;5022266;28;20053;-47
2021/07/15 05:05:59;;;;;;;1.70;1.60;;;;;;;30.16;47.88;95966.38;5021076;28;20610;-50
2021/07/15 05:08:27;;;;;;;2.90;1.45;;;;;;;32.31;40.91;95974.09;5028195;28;20069;-50
2021/07/15 05:10:57;;;;;;;3.53;0.98;;;;;;;30.94;42.47;95976.47;5026643;28;20087;-54
2021/07/15 05:13:26;;;;;;;0.70;0.70;;;;;;;28.16;47.26;95972.13;5021399;28;20295;-49
2021/07/15 05:15:55;;;;;;;1.60;1.50;;;;;;;31.26;40.84;95973.16;5029556;28;20065;-51
2021/07/15 05:18:24;;;;;;;1.63;0.68;;;;;;;29.34;44.46;95969.41;5025595;28;20072;-49
2021/07/15 05:20:52;;;;;;;2.25;0.70;;;;;;;28.83;46.35;95969.47;5023704;28;20061;-53
2021/07/15 05:23:20;;;;;;;1.13;1.00;;;;;;;27.84;46.61;95971.47;5014518;28;20092;-54
2021/07/15 05:25:51;;;;;;;2.00;1.00;;;;;;;27.46;50.74;95970.78;5029037;28;20077;-50
2021/07/15 05:28:19;;;;;;;2.38;1.17;;;;;;;27.63;48.32;95971.41;5019097;28;20065;-52
2021/07/15 05:30:54;;;;;;;0.80;0.80;;;;;;;29.26;44.50;95965.38;5021652;28;20065;-53
2021/07/15 05:33:22;;;;;;;;;;;;;;;26.55;50.17;95976.34;5026075;28;20542;-53
2021/07/15 05:35:51;;;;;;;2.40;0.70;;;;;;;25.57;56.19;95963.69;5021531;28;19968;-53
2021/07/15 05:38:19;;;;;;;0.50;0.50;;;;;;;25.32;56.73;95966.84;5021662;28;20077;-51
2021/07/15 05:40:47;;;;;;;0.98;0.50;;;;;;;25.59;54.60;95961.53;5020113;28;20085;-52
2021/07/15 05:43:16;;;;;;;0.73;0.70;;;;;;;25.54;55.35;95970.41;5027355;28;20577;-53
2021/07/15 05:45:44;;;;;;;1.67;0.70;;;;;;;25.89;56.26;95954.88;5020835;28;20077;-54
2021/07/15 05:48:14;;;;;;;2.25;0.70;;;;;;;25.29;58.66;95960.09;5020136;28;20136;-53
2021/07/15 05:50:42;;;;;;;0.70;0.70;;;;;;;26.53;55.86;95944.16;5025833;28;20111;-51
2021/07/15 05:53:10;;;;;;;0.60;0.60;;;;;;;25.66;61.25;95951.34;5022033;28;20061;-48
2021/07/15 05:55:39;;;;;;;1.05;0.85;;;;;;;27.62;51.75;95944.56;5022797;28;20096;-50
2021/07/15 05:58:08;;;;;;;1.35;0.70;;;;;;;28.16;50.38;95941.47;5014450;28;20033;-52
2021/07/15 06:00:37;;;;;;;0.65;0.65;;;;;;;27.83;51.81;95945.47;5025655;28;20061;-52
2021/07/15 06:03:06;;;;;;;1.67;0.80;;;;;;;29.66;47.66;95958.19;5021091;28;20076;-54
2021/07/15 06:05:35;;;;;;;0.68;0.60;;;;;;;30.09;45.61;95960.44;5014065;28;20535;-55
2021/07/15 06:08:05;;;;;;;1.65;0.80;;;;;;;28.89;50.24;95962.16;5027103;28;20084;-51
2021/07/15 06:10:33;;;;;;;1.38;0.90;;;;;;;29.38;47.22;95956.91;5025257;28;20081;-47
2021/07/15 06:13:01;;;;;;;2.17;1.23;;;;;;;28.08;54.69;95959.09;5020456;28;20089;-51
2021/07/15 06:15:30;;;;;;;3.67;1.23;;;;;;;29.03;50.96;95960.53;5026444;28;20073;-54
2021/07/15 06:17:58;;;;;;;0.90;0.90;;;;;;;27.82;53.12;95960.09;5024290;28;20077;-55
2021/07/15 06:20:28;;;;;;;2.95;1.05;;;;;;;27.76;57.38;95956.56;5023262;28;20060;-51
2021/07/15 06:22:57;;;;;;;1.33;0.75;;;;;;;27.42;56.95;95956.13;5019711;28;20558;-53
2021/07/15 06:25:26;;;;;;;1.27;0.90;;;;;;;27.98;55.02;95960.94;5025817;28;20069;-54
2021/07/15 06:27:56;;;;;;;7.30;1.23;;;;;;;28.47;52.29;95958.63;5022992;28;20069;-53
2021/07/15 06:30:24;;;;;;;3.22;1.08;;;;;;;27.40;53.74;95950.97;5020582;28;20062;-52
2021/07/15 06:32:54;;;;;;;1.38;1.00;;;;;;;27.80;54.22;95949.50;5019943;28;20072;-53
2021/07/15 06:35:23;;;;;;;3.50;1.10;;;;;;;28.33;54.52;95955.59;5025261;28;20076;-52
2021/07/15 06:37:53;;;;;;;3.55;1.10;;;;;;;26.22;59.28;95949.28;5024419;28;20503;-52
2021/07/15 06:40:25;;;;;;;2.53;1.10;;;;;;;26.99;56.07;95945.31;5019972;28;20508;-47
2021/07/15 06:42:53;;;;;;;5.22;1.20;;;;;;;25.80;62.00;95958.03;5025980;28;20088;-52
2021/07/15 06:45:21;;;;;;;1.10;1.00;;;;;;;25.23;67.77;95947.59;5021848;28;20068;-53
2021/07/15 06:47:50;;;;;;;1.73;1.10;;;;;;;25.79;60.88;95951.00;5019527;28;20081;-49
2021/07/15 06:50:18;;;;;;;1.25;0.90;;;;;;;24.79;70.08;95952.06;5013455;28;20085;-56
2021/07/15 06:52:47;;;;;;;1.35;1.10;;;;;;;25.36;69.84;95951.78;5027345;28;20072;-47
2021/07/15 06:55:15;;;;;;;1.10;1.00;;;;;;;26.30;62.09;95955.28;5023254;28;20067;-50
2021/07/15 06:57:47;;;;;;;2.58;1.13;;;;;;;27.18;57.26;95948.41;5017801;28;20480;-49
2021/07/15 07:00:18;;;;;;;1.58;1.00;;;;;;;26.44;61.28;95954.59;5020083;28;20068;-50
2021/07/15 07:02:47;;;;;;;1.23;1.00;;;;;;;27.57;55.24;95944.56;5021714;28;20073;-51
2021/07/15 07:05:17;;;;;;;1.10;1.00;;;;;;;27.57;51.90;95952.69;5018986;28;20520;-49
2021/07/15 07:07:46;;;;;;;2.17;1.10;;;;;;;26.41;57.42;95957.00;5018747;28;20088;-51
2021/07/15 07:10:16;;;;;;;1.52;1.20;;;;;;;27.77;52.87;95947.38;5025098;28;20061;-47
2021/07/15 07:12:46;;;;;;;2.00;1.00;;;;;;;27.71;52.01;95953.81;5023511;28;20063;-50
2021/07/15 07:15:16;;;;;;;1.27;1.17;;;;;;;26.59;55.45;95958.53;5016083;28;20496;-50
2021/07/15 07:17:44;;;;;;;1.10;1.00;;;;;;;28.40;51.57;95955.38;5014618;28;20073;-55
2021/07/15 07:20:14;;;;;;;1.65;1.20;;;;;;;29.08;46.12;95953.19;5022544;28;20087;-50
2021/07/15 07:22:42;;;;;;;;;;;;;;;30.18;43.56;95956.03;5027286;28;20468;-50
2021/07/15 07:25:13;;;;;;;0.90;0.90;;;;;;;29.59;47.51;95963.09;5024281;28;19933;-52
2021/07/15 07:27:42;;;;;;;2.55;1.10;;;;;;;30.75;43.06;95962.69;5027387;28;20061;-52
2021/07/15 07:30:14;;;;;;;1.30;1.20;;;;;;;30.78;42.34;95966.81;5027528;28;20072;-55
2021/07/15 07:32:43;;;;;;;1.30;0.98;;;;;;;30.73;43.30;95954.03;5020443;28;20061;-54
2021/07/15 07:35:12;;;;;;;6.30;1.15;;;;;;;30.70;43.30;95957.31;5023947;28;20076;-52
2021/07/15 07:37:41;;;;;;;1.58;0.95;;;;;;;31.34;40.49;95953.47;5029477;28;20468;-54
2021/07/15 07:40:11;;;;;;;3.28;1.10;;;;;;;31.05;41.26;95953.47;5022391;28;20052;-48
2021/07/15 07:42:42;;;;;;;1.25;1.00;;;;;;;31.19;41.79;95956.34;5019636;28;20080;-52
2021/07/15 07:45:12;;;;;;;1.52;1.27;;;;;;;28.92;46.24;95961.59;5030641;28;20076;-53
2021/07/15 07:47:41;;;;;;;1.40;1.00;;;;;;;28.84;46.45;95961.06;5024128;28;20064;-56
2021/07/15 07:50:11;;;;;;;1.58;0.90;;;;;;;29.82;45.48;95969.00;5022999;28;20463;-50
2021/07/15 07:52:40;;;;;;;0.82;0.80;;;;;;;28.85;46.76;95962.69;5024000;28;20065;-48
2021/07/15 07:55:09;;;;;;;1.00;0.90;;;;;;;28.08;49.17;95958.25;5027310;28;20045;-51
2021/07/15 07:57:38;;;;;;;1.60;1.00;;;;;;;29.50;45.65;95956.59;5025735;28;20655;-48
2021/07/15 08:00:09;;;;;;;1.10;0.93;;;;;;;30.67;43.91;95971.50;5017039;28;20073;-50
2021/07/15 08:02:39;;;;;;;1.50;0.80;;;;;;;28.51;46.28;95962.41;5028208;28;20458;-52
2021/07/15 08:05:09;;;;;;;2.40;1.13;;;;;;;29.51;44.23;95961.75;5021945;28;20486;-54
2021/07/15 08:07:38;;;;;;;1.98;1.20;;;;;;;29.47;44.65;95960.69;5023644;28;20088;-52
2021/07/15 08:10:08;;;;;;;2.65;1.20;;;;;;;28.37;47.74;95967.53;5019635;28;20064;-53
2021/07/15 08:12:37;;;;;;;1.25;1.00;;;;;;;29.17;45.08;95960.78;5026798;28;20127;-50
2021/07/15 08:15:06;;;;;;;1.77;1.02;;;;;;;28.31;48.30;95965.91;5022517;28;20073;-54
2021/07/15 08:17:35;;;;;;;2.15;0.90;;;;;;;27.13;51.16;95967.34;5017289;28;20069;-49
2021/07/15 08:20:05;;;;;;;3.05;1.02;;;;;;;29.61;49.37;95957.41;5029055;28;20087;-55
2021/07/15 08:22:34;;;;;;;1.73;1.10;;;;;;;27.08;56.69;95967.28;5029880;28;20081;-52
2021/07/15 08:25:03;;;;;;;2.08;1.02;;;;;;;27.26;54.06;95967.97;5021802;28;20099;-49
2021/07/15 08:27:31;;;;;;;1.70;1.00;;;;;;;28.25;53.65;95974.28;5026470;28;20072;-49
2021/07/15 08:29:59;;;;;;;1.10;1.00;;;;;;;28.34;50.35;95976.22;5026775;28;20077;-49
2021/07/15 08:32:28;;;;;;;3.97;1.17;;;;;;;28.27;54.24;95975.66;5022604;28;20467;-47
2021/07/15 08:34:56;;;;;;;0.90;0.90;;;;;;;29.61;49.15;95968.28;5023890;28;20555;-51
2021/07/15 08:37:26;;;;;;;1.02;0.85;;;;;;;29.84;48.84;95975.78;5027725;28;20069;-50
2021/07/15 08:39:54;;;;;;;1.23;0.60;;;;;;;30.46;47.34;95974.38;5025879;28;20065;-50
2021/07/15 08:42:22;;;;;;;0.75;0.68;;;;;;;29.98;nan;95976.00;5021242;28;20073;-49
2021/07/15 08:44:52;;;;;;;0.65;0.65;;;;;;;29.79;48.49;95973.09;5017092;28;20046;-50
2021/07/15 08:47:20;;;;;;;0.80;0.65;;;;;;;29.24;49.73;95980.31;5027260;28;20081;-47
2021/07/15 08:49:49;;;;;;;1.50;0.70;;;;;;;30.26;46.95;95982.66;5028043;28;20535;-46
2021/07/15 08:52:17;;;;;;;0.80;0.80;;;;;;;30.55;44.41;95985.44;5023897;28;20670;-47
2021/07/15 08:55:00;;;;;;;0.63;0.60;;;;;;;30.84;45.16;95987.44;5026447;28;20061;-53
2021/07/15 08:57:28;;;;;;;0.85;0.63;;;;;;;30.71;46.00;95986.16;5024146;28;20076;-49
2021/07/15 08:59:56;;;;;;;0.70;0.70;;;;;;;29.13;46.73;95986.84;5021117;28;20046;-51
2021/07/15 09:02:25;;;;;;;0.90;0.70;;;;;;;30.60;43.35;95985.41;5015952;28;20459;-51
2021/07/15 09:04:55;;;;;;;1.15;0.70;;;;;;;30.34;46.34;95986.69;5026746;28;20077;-47
2021/07/15 09:07:24;;;;;;;;;;;;;;;30.27;44.82;95981.56;5026500;28;20084;-48
2021/07/15 09:09:56;;;;;;;1.08;0.68;;;;;;;29.53;48.47;95980.50;5022705;28;19960;-53
2021/07/15 09:12:24;;;;;;;1.40;0.68;;;;;;;27.63;60.64;95986.81;5021319;28;20065;-52
2021/07/15 09:14:54;;;;;;;0.82;0.82;;;;;;;26.68;76.12;95994.88;5025713;28;20065;-51
2021/07/15 09:17:28;;;;;;;2.63;0.93;;;;;;;23.81;100.00;96002.59;5018760;28;20065;-50
2021/07/15 09:19:57;;;;;;;1.75;0.95;;;;;;;23.89;100.00;95999.53;5022216;28;20089;-48
2021/07/15 09:22:25;;;;;;;4.65;1.23;;;;;;;23.57;100.00;96001.81;5024439;28;20516;-53
2021/07/15 09:24:55;;;;;;;2.00;1.20;;;;;;;23.11;100.00;96011.59;5024392;28;20064;-50
2021/07/15 09:27:25;;;;;;;1.88;1.00;;;;;;;22.72;100.00;96016.59;5019899;28;20452;-50
2021/07/15 09:30:08;;;;;;;4.20;1.40;;;;;;;22.97;100.00;96011.81;5021706;28;20069;-52
2021/07/15 09:32:50;;;;;;;4.75;1.40;;;;;;;22.72;100.00;96012.03;5023728;28;20077;-48
2021/07/15 09:35:30;;;;;;;5.80;1.60;;;;;;;23.56;100.00;96011.75;5022311;28;20495;-50
2021/07/15 09:38:08;;;;;;;0.90;0.88;;;;;;;23.40;100.00;96017.88;5023333;28;20468;-55
2021/07/15 09:40:43;;;;;;;1.58;1.00;;;;;;;22.88;100.00;96013.22;5026845;28;20261;-48
2021/07/15 09:43:15;;;;;;;1.13;1.00;;;;;;;24.29;100.00;96012.94;5024437;28;20548;-49
2021/07/15 09:45:44;;;;;;;1.17;0.90;;;;;;;24.58;100.00;96013.75;5018511;28;20527;-50
2021/07/15 09:48:20;;;;;;;1.23;1.00;;;;;;;24.48;100.00;96024.34;5021710;28;20069;-53
2021/07/15 09:50:50;;;;;;;2.35;1.40;;;;;;;24.56;100.00;96023.13;5026446;28;20053;-55
2021/07/15 09:53:23;;;;;;;1.08;0.98;;;;;;;25.14;100.00;96021.94;5020856;28;20074;-51
2021/07/15 09:56:00;;;;;;;0.80;0.80;;;;;;;24.71;100.00;96020.72;5024055;28;20053;-52
2021/07/15 09:58:32;;;;;;;1.52;0.90;;;;;;;25.70;100.00;96021.88;5024829;28;20239;-52
2021/07/15 10:01:05;;;;;;;2.30;1.38;;;;;;;26.38;93.70;96017.81;5022403;28;20076;-52
2021/07/15 10:03:36;;;;;;;2.42;1.60;;;;;;;26.01;87.74;96023.91;5019439;28;20072;-53
2021/07/15 10:06:05;;;;;;;2.00;1.30;;;;;;;26.96;80.39;96013.47;5022008;28;20061;-52
2021/07/15 10:08:35;;;;;;;2.03;0.93;;;;;;;27.06;77.69;96018.16;5026747;28;20072;-54
2021/07/15 10:11:20;;;;;;;2.03;1.20;;;;;;;26.30;80.56;96022.88;5019577;28;20081;-52
2021/07/15 10:13:59;;;;;;;2.60;1.55;;;;;;;26.57;81.09;96023.72;5017667;28;20081;-47
2021/07/15 10:16:29;;;;;;;3.63;2.38;;;;;;;27.32;71.92;96026.47;5019292;28;20475;-49
2021/07/15 10:18:59;;;;;;;0.88;0.80;;;;;;;26.92;74.79;96025.91;5021201;28;20073;-53
2021/07/15 10:21:29;;;;;;;0.65;0.65;;;;;;;25.35;87.25;96025.75;5024297;28;20065;-49
2021/07/15 10:23:58;;;;;;;0.80;0.75;;;;;;;25.63;88.30;96026.66;5021204;28;20069;-48
2021/07/15 10:26:31;;;;;;;1.50;0.93;;;;;;;26.28;83.67;96029.34;5023512;28;20084;-51
2021/07/15 10:29:00;;;;;;;1.65;1.00;;;;;;;26.43;87.43;96033.28;5021703;28;20089;-50
2021/07/15 10:31:28;;;;;;;1.33;1.00;;;;;;;26.04;85.88;96034.22;5016671;28;20799;-48
2021/07/15 10:33:57;;;;;;;1.35;0.90;;;;;;;26.51;81.91;96028.25;5023623;28;20061;-48
2021/07/15 10:36:26;;;;;;;0.93;0.90;;;;;;;25.79;87.13;96034.72;5022945;28;20072;-51
2021/07/15 10:38:55;;;;;;;1.27;1.00;;;;;;;25.57;94.52;96028.50;5021849;28;20596;-48
2021/07/15 10:41:24;;;;;;;1.95;1.00;;;;;;;25.70;93.57;96030.78;5019096;28;20944;-52
2021/07/15 10:43:54;;;;;;;0.90;0.90;;;;;;;24.85;100.00;96034.69;5026514;28;21053;-54
2021/07/15 10:46:30;;;;;;;1.52;1.00;;;;;;;25.84;94.94;96033.16;5020715;28;20467;-48
2021/07/15 10:49:19;;;;;;;2.75;1.00;;;;;;;25.92;88.49;96027.34;5018085;28;20080;-54
2021/07/15 10:51:49;;;;;;;1.10;1.00;;;;;;;25.72;95.76;96028.69;5024137;28;20065;-52
2021/07/15 10:54:18;;;;;;;0.90;0.90;;;;;;;25.47;99.89;96028.34;5018092;28;20062;-50
2021/07/15 10:56:47;;;;;;;1.52;1.00;;;;;;;26.48;86.19;96023.34;5016633;28;20061;-49
2021/07/15 10:59:24;;;;;;;2.08;0.90;;;;;;;26.91;78.00;96028.84;5018545;28;20527;-49
2021/07/15 11:01:53;;;;;;;0.80;0.80;;;;;;;25.32;83.11;96031.63;5026407;28;20081;-54
2021/07/15 11:04:37;;;;;;;0.88;0.80;;;;;;;25.40;82.68;96031.22;5023332;28;20076;-51
2021/07/15 11:07:22;;;;;;;0.93;0.75;;;;;;;25.83;77.64;96029.66;5021463;28;20096;-47
2021/07/15 11:09:51;;;;;;;2.25;0.73;;;;;;;26.02;76.08;96019.34;5019704;28;20078;-55
2021/07/15 11:12:32;;;;;;;1.03;0.60;;;;;;;25.55;75.72;96026.03;5018346;28;20061;-51
2021/07/15 11:15:06;;;;;;;3.15;0.68;;;;;;;27.32;65.86;96029.16;5018453;28;20461;-52
2021/07/15 11:17:35;;;;;;;1.95;0.70;;;;;;;27.71;60.80;96026.16;5022751;28;20089;-54
2021/07/15 11:20:06;;;;;;;1.05;0.70;;;;;;;28.83;57.86;96029.19;5020040;28;20077;-49
2021/07/15 11:22:46;;;;;;;1.40;0.80;;;;;;;29.08;58.22;96033.84;5021552;28;20103;-48
2021/07/15 11:25:17;;;;;;;1.08;0.85;;;;;;;28.56;56.31;96026.72;5025363;28;20049;-51
2021/07/15 11:27:50;;;;;;;0.50;0.50;;;;;;;28.49;53.12;96028.88;5020675;28;20444;-47
2021/07/15 11:30:42;;;;;;;0.40;0.40;;;;;;;28.44;54.52;96026.16;5014178;28;20073;-50
2021/07/15 11:33:38;;;;;;;1.17;0.50;;;;;;;28.38;53.61;96028.00;5016154;28;20457;-53
2021/07/15 11:36:12;;;;;;;1.83;0.52;;;;;;;28.16;53.60;96026.34;5025318;28;20068;-53
2021/07/15 11:38:43;;;;;;;1.08;0.57;;;;;;;27.44;57.33;96032.50;5018668;28;20057;-51
2021/07/15 11:41:13;;;;;;;0.50;0.50;;;;;;;26.82;66.43;96035.84;5017257;28;20085;-48
2021/07/15 11:43:52;;;;;;;5.13;0.70;;;;;;;27.24;69.75;96032.38;5023717;28;20084;-52
2021/07/15 11:46:22;;;;;;;1.40;0.55;;;;;;;27.77;66.94;96044.06;5023055;28;20088;-49
2021/07/15 11:48:54;;;;;;;0.50;0.40;;;;;;;26.64;71.50;96043.25;5019362;28;20065;-49